createdAt,value
2023-05-14T00:00:35.859Z,51.216156
2023-05-14T00:01:35.856Z,51.216152
2023-05-14T00:02:35.941Z,51.216290
2023-05-14T00:03:35.888Z,51.216232
2023-05-14T00:04:35.869Z,51.216061
2023-05-14T00:05:35.821Z,51.216103
2023-05-14T00:06:35.827Z,51.216076
2023-05-14T00:07:36.810Z,51.216099
2023-05-14T00:08:35.813Z,51.216141
2023-05-14T00:09:35.797Z,51.216156
2023-05-14T00:10:35.789Z,51.216228
2023-05-14T00:11:35.786Z,51.216267
2023-05-14T00:12:35.788Z,51.216194
2023-05-14T00:13:35.765Z,51.216145
2023-05-14T00:14:35.774Z,51.216183
2023-05-14T00:15:35.768Z,51.216042
2023-05-14T00:16:35.914Z,51.216034
2023-05-14T00:17:35.825Z,51.216221
2023-05-14T00:18:35.781Z,51.216000
2023-05-14T00:19:35.734Z,51.216114
2023-05-14T00:20:35.729Z,51.216064
2023-05-14T00:21:35.732Z,51.216103
2023-05-14T00:22:35.726Z,51.216084
2023-05-14T00:23:35.723Z,51.216019
2023-05-14T00:24:35.721Z,51.216114
2023-05-14T00:25:35.718Z,51.216206
2023-05-14T00:26:35.699Z,51.216061
2023-05-14T00:27:35.718Z,51.216064
2023-05-14T00:28:35.676Z,51.215973
2023-05-14T00:29:35.670Z,51.216003
2023-05-14T00:30:35.658Z,51.216145
2023-05-14T00:31:35.740Z,51.216106
2023-05-14T00:32:35.699Z,51.216190
2023-05-14T00:33:35.645Z,51.216038
2023-05-14T00:34:35.637Z,51.216129
2023-05-14T00:35:35.627Z,51.216091
2023-05-14T00:36:35.625Z,51.216221
2023-05-14T00:37:35.650Z,51.216011
2023-05-14T00:38:35.616Z,51.215965
2023-05-14T00:39:35.610Z,51.216061
2023-05-14T00:40:35.614Z,51.216057
2023-05-14T00:41:35.615Z,51.216156
2023-05-14T00:42:35.597Z,51.216026
2023-05-14T00:43:35.604Z,51.216068
2023-05-14T00:44:35.565Z,51.216080
2023-05-14T00:45:35.561Z,51.215931
2023-05-14T00:46:35.600Z,51.215897
2023-05-14T00:47:35.584Z,51.215912
2023-05-14T00:48:35.552Z,51.216042
2023-05-14T00:49:35.563Z,51.216118
2023-05-14T00:50:35.533Z,51.216026
2023-05-14T00:51:35.526Z,51.216076
2023-05-14T00:52:35.525Z,51.216125
2023-05-14T00:53:35.567Z,51.216106
2023-05-14T00:54:35.505Z,51.216103
2023-05-14T00:55:35.501Z,51.216160
2023-05-14T00:56:35.501Z,51.216087
2023-05-14T00:57:35.496Z,51.216042
2023-05-14T00:58:35.492Z,51.216000
2023-05-14T00:59:35.485Z,51.216099
2023-05-14T01:00:35.527Z,51.216034
2023-05-14T01:01:35.528Z,51.215961
2023-05-14T01:02:35.538Z,51.215977
2023-05-14T01:03:35.620Z,51.216034
2023-05-14T01:04:35.440Z,51.216095
2023-05-14T01:05:35.460Z,51.216080
2023-05-14T01:06:35.423Z,51.216045
2023-05-14T01:07:35.427Z,51.216076
2023-05-14T01:08:35.412Z,51.216080
2023-05-14T01:09:35.410Z,51.216118
2023-05-14T01:10:35.423Z,51.216084
2023-05-14T01:11:35.399Z,51.216030
2023-05-14T01:12:35.395Z,51.215900
2023-05-14T01:13:35.393Z,51.215885
2023-05-14T01:14:35.380Z,51.215912
2023-05-14T01:15:35.414Z,51.216026
2023-05-14T01:16:35.390Z,51.216026
2023-05-14T01:17:35.374Z,51.215977
2023-05-14T01:18:35.565Z,51.216049
2023-05-14T01:19:35.349Z,51.216068
2023-05-14T01:20:35.367Z,51.215984
2023-05-14T01:21:35.351Z,51.216015
2023-05-14T01:22:35.329Z,51.216064
2023-05-14T01:23:35.325Z,51.215969
2023-05-14T01:24:35.319Z,51.215939
2023-05-14T01:25:35.445Z,51.216106
2023-05-14T01:26:35.321Z,51.216137
2023-05-14T01:27:35.290Z,51.216064
2023-05-14T01:28:35.291Z,51.216183
2023-05-14T01:29:35.271Z,51.216160
2023-05-14T01:30:35.297Z,51.216187
2023-05-14T01:31:35.297Z,51.216251
2023-05-14T01:32:35.337Z,51.216270
2023-05-14T01:33:35.265Z,51.216236
2023-05-14T01:34:35.242Z,51.216228
2023-05-14T01:35:35.257Z,51.216187
2023-05-14T01:36:35.222Z,51.216160
2023-05-14T01:37:35.224Z,51.216190
2023-05-14T01:38:35.230Z,51.216183
2023-05-14T01:39:35.274Z,51.216194
2023-05-14T01:40:35.250Z,51.216206
2023-05-14T01:41:35.218Z,51.216171
2023-05-14T01:42:35.192Z,51.216202
2023-05-14T01:43:35.295Z,51.216129
2023-05-14T01:44:35.175Z,51.216015
2023-05-14T01:45:35.189Z,51.215942
2023-05-14T01:46:35.182Z,51.216076
2023-05-14T01:47:35.173Z,51.216095
2023-05-14T01:48:35.275Z,51.216167
2023-05-14T01:49:35.154Z,51.216183
2023-05-14T01:50:35.148Z,51.216225
2023-05-14T01:51:35.154Z,51.216114
2023-05-14T01:52:35.135Z,51.216122
2023-05-14T01:53:35.123Z,51.216099
2023-05-14T01:54:35.132Z,51.216072
2023-05-14T01:55:35.109Z,51.216110
2023-05-14T01:56:35.146Z,51.216133
2023-05-14T01:57:35.108Z,51.216179
2023-05-14T01:58:35.086Z,51.216164
2023-05-14T01:59:35.105Z,51.216148
2023-05-14T02:00:35.078Z,51.216003
2023-05-14T02:01:35.134Z,51.216152
2023-05-14T02:02:35.104Z,51.216225
2023-05-14T02:03:35.091Z,51.216400
2023-05-14T02:04:35.054Z,51.216251
2023-05-14T02:05:35.045Z,51.216232
2023-05-14T02:06:35.037Z,51.216141
2023-05-14T02:07:35.037Z,51.216110
2023-05-14T02:08:35.034Z,51.216175
2023-05-14T02:09:35.018Z,51.216091
2023-05-14T02:10:35.018Z,51.216175
2023-05-14T02:11:35.002Z,51.216244
2023-05-14T02:12:35.027Z,51.216194
2023-05-14T02:13:35.018Z,51.216064
2023-05-14T02:14:34.987Z,51.216080
2023-05-14T02:15:35.036Z,51.216084
2023-05-14T02:16:34.993Z,51.216057
2023-05-14T02:17:35.024Z,51.216148
2023-05-14T02:18:34.973Z,51.216133
2023-05-14T02:19:34.957Z,51.216274
2023-05-14T02:20:35.081Z,51.216129
2023-05-14T02:21:34.925Z,51.216057
2023-05-14T02:22:34.929Z,51.216164
2023-05-14T02:23:41.602Z,51.216198
2023-05-14T02:24:36.904Z,51.216045
2023-05-14T02:25:34.929Z,51.216091
2023-05-14T02:26:34.903Z,51.216068
2023-05-14T02:27:34.892Z,51.216084
2023-05-14T02:28:34.886Z,51.216110
2023-05-14T02:29:34.874Z,51.216125
2023-05-14T02:30:34.886Z,51.216080
2023-05-14T02:31:34.934Z,51.216122
2023-05-14T02:32:34.962Z,51.216187
2023-05-14T02:33:34.888Z,51.216351
2023-05-14T02:34:34.852Z,51.216122
2023-05-14T02:35:34.860Z,51.216053
2023-05-14T02:36:34.856Z,51.215935
2023-05-14T02:37:34.852Z,51.216091
2023-05-14T02:38:34.839Z,51.216137
2023-05-14T02:39:34.818Z,51.216290
2023-05-14T02:40:34.804Z,51.216240
2023-05-14T02:41:34.797Z,51.216148
2023-05-14T02:42:35.843Z,51.216072
2023-05-14T02:43:34.829Z,51.215973
2023-05-14T02:44:34.785Z,51.216129
2023-05-14T02:45:34.770Z,51.216114
2023-05-14T02:46:34.785Z,51.216049
2023-05-14T02:47:37.518Z,51.216084
2023-05-14T02:48:34.767Z,51.216110
2023-05-14T02:49:34.740Z,51.216106
2023-05-14T02:50:34.760Z,51.216084
2023-05-14T02:51:34.731Z,51.216099
2023-05-14T02:52:34.733Z,51.216072
2023-05-14T02:53:34.718Z,51.216057
2023-05-14T02:54:34.711Z,51.216026
2023-05-14T02:55:34.734Z,51.216038
2023-05-14T02:56:34.726Z,51.216022
2023-05-14T02:57:34.688Z,51.216026
2023-05-14T02:58:34.685Z,51.216152
2023-05-14T02:59:34.681Z,51.216141
2023-05-14T03:00:34.703Z,51.216015
2023-05-14T03:01:34.704Z,51.216095
2023-05-14T03:02:34.732Z,51.216110
2023-05-14T03:03:34.660Z,51.216114
2023-05-14T03:04:34.641Z,51.216095
2023-05-14T03:05:34.643Z,51.216057
2023-05-14T03:06:34.701Z,51.216106
2023-05-14T03:07:34.623Z,51.216099
2023-05-14T03:08:34.617Z,51.216061
2023-05-14T03:09:36.717Z,51.216152
2023-05-14T03:10:34.607Z,51.216091
2023-05-14T03:11:34.632Z,51.216106
2023-05-14T03:12:34.615Z,51.216095
2023-05-14T03:13:34.613Z,51.216091
2023-05-14T03:14:34.585Z,51.216095
2023-05-14T03:15:34.585Z,51.216080
2023-05-14T03:16:34.624Z,51.216175
2023-05-14T03:17:34.592Z,51.216122
2023-05-14T03:18:34.605Z,51.216106
2023-05-14T03:19:34.545Z,51.216110
2023-05-14T03:20:34.546Z,51.216152
2023-05-14T03:21:34.563Z,51.216190
2023-05-14T03:22:34.540Z,51.216110
2023-05-14T03:23:34.548Z,51.216103
2023-05-14T03:24:34.516Z,51.216061
2023-05-14T03:25:34.548Z,51.216038
2023-05-14T03:26:34.501Z,51.216068
2023-05-14T03:27:34.534Z,51.216114
2023-05-14T03:28:34.513Z,51.216156
2023-05-14T03:29:34.505Z,51.216137
2023-05-14T03:30:34.542Z,51.216118
2023-05-14T03:31:34.505Z,51.216099
2023-05-14T03:32:34.556Z,51.216091
2023-05-14T03:33:34.461Z,51.216118
2023-05-14T03:34:34.453Z,51.216122
2023-05-14T03:35:34.467Z,51.216148
2023-05-14T03:36:34.433Z,51.216091
2023-05-14T03:37:34.428Z,51.216137
2023-05-14T03:38:34.437Z,51.216148
2023-05-14T03:39:34.431Z,51.216187
2023-05-14T03:40:34.435Z,51.216293
2023-05-14T03:41:34.408Z,51.216190
2023-05-14T03:42:34.400Z,51.216156
2023-05-14T03:43:34.375Z,51.216171
2023-05-14T03:44:34.395Z,51.216133
2023-05-14T03:45:34.398Z,51.216164
2023-05-14T03:46:34.381Z,51.216141
2023-05-14T03:47:34.394Z,51.216171
2023-05-14T03:48:34.409Z,51.216167
2023-05-14T03:49:34.384Z,51.216179
2023-05-14T03:50:35.356Z,51.216118
2023-05-14T03:51:34.342Z,51.216103
2023-05-14T03:52:34.348Z,51.216034
2023-05-14T03:53:34.332Z,51.216091
2023-05-14T03:54:34.322Z,51.216087
2023-05-14T03:55:34.329Z,51.216137
2023-05-14T03:56:34.308Z,51.216099
2023-05-14T03:57:34.287Z,51.216190
2023-05-14T03:58:34.285Z,51.216221
2023-05-14T03:59:34.327Z,51.216045
2023-05-14T04:00:34.295Z,51.216049
2023-05-14T04:01:34.267Z,51.216095
2023-05-14T04:02:34.370Z,51.216259
2023-05-14T04:03:34.415Z,51.216232
2023-05-14T04:04:34.271Z,51.216171
2023-05-14T04:05:34.244Z,51.216152
2023-05-14T04:06:34.256Z,51.216057
2023-05-14T04:07:34.229Z,51.215961
2023-05-14T04:08:34.215Z,51.216103
2023-05-14T04:09:34.226Z,51.216118
2023-05-14T04:10:34.218Z,51.216106
2023-05-14T04:11:34.224Z,51.216057
2023-05-14T04:12:34.192Z,51.216076
2023-05-14T04:13:34.193Z,51.216061
2023-05-14T04:14:35.040Z,51.216095
2023-05-14T04:15:34.186Z,51.216099
2023-05-14T04:16:34.192Z,51.216125
2023-05-14T04:17:35.135Z,51.216167
2023-05-14T04:18:35.229Z,51.216217
2023-05-14T04:19:34.145Z,51.216190
2023-05-14T04:20:34.147Z,51.216156
2023-05-14T04:21:34.133Z,51.216106
2023-05-14T04:22:34.138Z,51.216125
2023-05-14T04:23:34.141Z,51.216080
2023-05-14T04:24:34.125Z,51.216095
2023-05-14T04:25:34.111Z,51.216095
2023-05-14T04:26:34.104Z,51.216095
2023-05-14T04:27:34.104Z,51.216129
2023-05-14T04:28:34.091Z,51.216114
2023-05-14T04:29:34.103Z,51.216106
2023-05-14T04:30:34.131Z,51.216148
2023-05-14T04:31:34.134Z,51.216110
2023-05-14T04:32:34.093Z,51.216087
2023-05-14T04:33:34.064Z,51.216015
2023-05-14T04:34:34.100Z,51.216038
2023-05-14T04:35:34.057Z,51.216049
2023-05-14T04:36:34.046Z,51.216095
2023-05-14T04:37:34.038Z,51.216141
2023-05-14T04:38:34.036Z,51.216095
2023-05-14T04:39:34.014Z,51.216091
2023-05-14T04:40:34.031Z,51.216072
2023-05-14T04:41:33.989Z,51.216110
2023-05-14T04:42:33.998Z,51.216045
2023-05-14T04:43:34.020Z,51.216053
2023-05-14T04:44:33.996Z,51.216080
2023-05-14T04:45:34.454Z,51.215996
2023-05-14T04:46:35.035Z,51.215885
2023-05-14T04:47:34.066Z,51.215988
2023-05-14T04:48:33.950Z,51.216042
2023-05-14T04:49:33.961Z,51.216011
2023-05-14T04:50:33.948Z,51.215988
2023-05-14T04:51:33.959Z,51.216110
2023-05-14T04:52:33.933Z,51.216045
2023-05-14T04:53:33.916Z,51.216103
2023-05-14T04:54:33.972Z,51.216019
2023-05-14T04:55:33.938Z,51.216072
2023-05-14T04:56:33.907Z,51.215904
2023-05-14T04:57:33.914Z,51.215950
2023-05-14T04:58:35.112Z,51.215996
2023-05-14T04:59:34.907Z,51.216091
2023-05-14T05:00:33.900Z,51.216148
2023-05-14T05:01:33.930Z,51.216076
2023-05-14T05:02:33.890Z,51.216061
2023-05-14T05:03:33.926Z,51.216053
2023-05-14T05:04:34.861Z,51.216000
2023-05-14T05:05:33.882Z,51.215973
2023-05-14T05:06:33.843Z,51.215908
2023-05-14T05:07:33.863Z,51.215916
2023-05-14T05:08:33.825Z,51.215832
2023-05-14T05:09:33.829Z,51.215961
2023-05-14T05:10:33.821Z,51.215927
2023-05-14T05:11:33.820Z,51.215904
2023-05-14T05:12:33.833Z,51.215904
2023-05-14T05:13:33.804Z,51.216015
2023-05-14T05:14:33.793Z,51.216156
2023-05-14T05:15:33.802Z,51.216045
2023-05-14T05:16:33.831Z,51.216084
2023-05-14T05:17:33.819Z,51.216175
2023-05-14T05:18:33.870Z,51.216133
2023-05-14T05:19:43.092Z,51.216125
2023-05-14T05:20:35.870Z,51.216068
2023-05-14T05:21:33.776Z,51.216133
2023-05-14T05:22:33.766Z,51.216137
2023-05-14T05:23:33.769Z,51.216156
2023-05-14T05:24:33.748Z,51.216125
2023-05-14T05:25:33.734Z,51.216072
2023-05-14T05:26:33.726Z,51.216103
2023-05-14T05:27:33.707Z,51.216061
2023-05-14T05:28:33.739Z,51.215961
2023-05-14T05:29:33.716Z,51.215984
2023-05-14T05:30:33.689Z,51.216000
2023-05-14T05:31:33.722Z,51.216003
2023-05-14T05:32:33.734Z,51.215977
2023-05-14T05:33:33.718Z,51.216034
2023-05-14T05:34:33.685Z,51.216171
2023-05-14T05:35:33.675Z,51.216217
2023-05-14T05:36:33.690Z,51.216213
2023-05-14T05:37:33.649Z,51.216236
2023-05-14T05:38:33.685Z,51.216255
2023-05-14T05:39:33.638Z,51.216171
2023-05-14T05:40:33.624Z,51.216190
2023-05-14T05:41:33.627Z,51.216145
2023-05-14T05:42:33.619Z,51.216156
2023-05-14T05:43:33.646Z,51.216209
2023-05-14T05:44:33.682Z,51.216202
2023-05-14T05:45:33.601Z,51.216225
2023-05-14T05:46:33.619Z,51.216187
2023-05-14T05:47:33.599Z,51.216122
2023-05-14T05:48:33.580Z,51.216145
2023-05-14T05:49:33.611Z,51.216141
2023-05-14T05:50:33.641Z,51.216137
2023-05-14T05:51:33.602Z,51.216171
2023-05-14T05:52:33.561Z,51.216183
2023-05-14T05:53:33.546Z,51.216145
2023-05-14T05:54:33.558Z,51.216183
2023-05-14T05:55:33.577Z,51.216156
2023-05-14T05:56:33.531Z,51.216156
2023-05-14T05:57:33.532Z,51.216110
2023-05-14T05:58:33.506Z,51.216122
2023-05-14T05:59:33.526Z,51.216145
2023-05-14T06:00:33.519Z,51.216152
2023-05-14T06:01:33.495Z,51.216141
2023-05-14T06:02:33.652Z,51.216190
2023-05-14T06:03:33.519Z,51.216225
2023-05-14T06:04:33.513Z,51.216160
2023-05-14T06:05:33.500Z,51.216202
2023-05-14T06:06:34.348Z,51.216160
2023-05-14T06:07:33.476Z,51.216129
2023-05-14T06:08:33.458Z,51.216175
2023-05-14T06:09:33.467Z,51.216152
2023-05-14T06:10:33.449Z,51.216160
2023-05-14T06:11:33.448Z,51.216110
2023-05-14T06:12:33.452Z,51.216103
2023-05-14T06:13:33.429Z,51.216148
2023-05-14T06:14:33.455Z,51.216190
2023-05-14T06:15:33.417Z,51.216125
2023-05-14T06:16:33.480Z,51.216125
2023-05-14T06:17:33.461Z,51.216057
2023-05-14T06:18:33.446Z,51.216110
2023-05-14T06:19:33.416Z,51.216125
2023-05-14T06:20:33.389Z,51.216133
2023-05-14T06:21:33.384Z,51.216164
2023-05-14T06:22:33.389Z,51.216118
2023-05-14T06:23:33.370Z,51.216133
2023-05-14T06:24:33.370Z,51.216091
2023-05-14T06:25:33.362Z,51.216110
2023-05-14T06:26:33.354Z,51.216152
2023-05-14T06:27:33.375Z,51.216171
2023-05-14T06:28:33.325Z,51.216118
2023-05-14T06:29:33.327Z,51.216114
2023-05-14T06:30:33.321Z,51.216095
2023-05-14T06:31:33.393Z,51.216099
2023-05-14T06:32:33.375Z,51.216076
2023-05-14T06:33:33.320Z,51.216137
2023-05-14T06:34:33.338Z,51.216194
2023-05-14T06:35:33.297Z,51.216213
2023-05-14T06:36:33.280Z,51.216160
2023-05-14T06:37:33.272Z,51.216145
2023-05-14T06:38:33.267Z,51.216118
2023-05-14T06:39:33.254Z,51.216183
2023-05-14T06:40:33.297Z,51.216133
2023-05-14T06:41:33.241Z,51.216106
2023-05-14T06:42:33.234Z,51.216171
2023-05-14T06:43:33.227Z,51.216129
2023-05-14T06:44:33.220Z,51.216141
2023-05-14T06:45:33.408Z,51.216270
2023-05-14T06:46:33.210Z,51.216118
2023-05-14T06:47:33.223Z,51.216114
2023-05-14T06:48:33.246Z,51.216187
2023-05-14T06:49:33.183Z,51.216160
2023-05-14T06:50:33.180Z,51.216099
2023-05-14T06:51:33.207Z,51.216145
2023-05-14T06:52:33.161Z,51.216232
2023-05-14T06:53:33.151Z,51.216209
2023-05-14T06:54:33.143Z,51.216129
2023-05-14T06:55:33.136Z,51.216114
2023-05-14T06:56:33.151Z,51.216064
2023-05-14T06:57:33.135Z,51.216087
2023-05-14T06:58:33.114Z,51.216179
2023-05-14T06:59:33.117Z,51.216232
2023-05-14T07:00:33.104Z,51.216160
2023-05-14T07:01:33.157Z,51.216141
2023-05-14T07:02:33.168Z,51.216148
2023-05-14T07:03:33.110Z,51.216156
2023-05-14T07:04:33.174Z,51.216125
2023-05-14T07:05:33.067Z,51.216183
2023-05-14T07:06:33.090Z,51.216137
2023-05-14T07:07:33.052Z,51.216137
2023-05-14T07:08:33.034Z,51.216225
2023-05-14T07:09:33.041Z,51.216202
2023-05-14T07:10:33.035Z,51.216217
2023-05-14T07:11:33.016Z,51.216248
2023-05-14T07:12:33.029Z,51.216209
2023-05-14T07:13:33.009Z,51.216171
2023-05-14T07:14:32.988Z,51.216167
2023-05-14T07:15:32.980Z,51.216225
2023-05-14T07:16:33.054Z,51.216206
2023-05-14T07:17:33.011Z,51.216148
2023-05-14T07:18:33.042Z,51.216145
2023-05-14T07:19:32.994Z,51.216141
2023-05-14T07:20:32.993Z,51.216091
2023-05-14T07:21:32.952Z,51.216084
2023-05-14T07:22:32.946Z,51.216118
2023-05-14T07:23:32.952Z,51.216148
2023-05-14T07:24:32.968Z,51.216129
2023-05-14T07:25:32.933Z,51.216114
2023-05-14T07:26:32.917Z,51.216129
2023-05-14T07:27:32.919Z,51.216122
2023-05-14T07:28:33.907Z,51.216137
2023-05-14T07:29:32.899Z,51.216125
2023-05-14T07:30:32.892Z,51.216164
2023-05-14T07:31:32.924Z,51.216141
2023-05-14T07:32:32.981Z,51.216072
2023-05-14T07:33:32.874Z,51.216084
2023-05-14T07:34:32.889Z,51.216045
2023-05-14T07:35:32.858Z,51.216106
2023-05-14T07:36:32.882Z,51.216125
2023-05-14T07:37:32.842Z,51.216122
2023-05-14T07:38:32.843Z,51.216145
2023-05-14T07:39:32.831Z,51.216156
2023-05-14T07:40:32.832Z,51.216133
2023-05-14T07:41:32.809Z,51.216053
2023-05-14T07:42:36.792Z,51.216110
2023-05-14T07:43:33.803Z,51.216099
2023-05-14T07:44:32.814Z,51.216087
2023-05-14T07:45:32.936Z,51.216118
2023-05-14T07:46:32.796Z,51.216110
2023-05-14T07:47:33.115Z,51.216106
2023-05-14T07:48:32.789Z,51.215950
2023-05-14T07:49:32.777Z,51.216106
2023-05-14T07:50:32.791Z,51.216087
2023-05-14T07:51:33.763Z,51.216064
2023-05-14T07:52:32.731Z,51.216087
2023-05-14T07:53:32.782Z,51.216167
2023-05-14T07:54:32.721Z,51.216175
2023-05-14T07:55:32.840Z,51.216061
2023-05-14T07:56:32.706Z,51.215969
2023-05-14T07:57:32.705Z,51.216095
2023-05-14T07:58:32.705Z,51.216137
2023-05-14T07:59:32.699Z,51.216290
2023-05-14T08:00:32.682Z,51.216129
2023-05-14T08:01:32.733Z,51.216209
2023-05-14T08:02:32.734Z,51.216091
2023-05-14T08:03:32.773Z,51.215973
2023-05-14T08:04:32.707Z,51.216042
2023-05-14T08:05:32.652Z,51.216167
2023-05-14T08:06:32.693Z,51.216370
2023-05-14T08:07:32.637Z,51.216366
2023-05-14T08:08:32.632Z,51.216187
2023-05-14T08:09:32.627Z,51.216290
2023-05-14T08:10:32.651Z,51.216225
2023-05-14T08:11:32.627Z,51.216095
2023-05-14T08:12:32.617Z,51.216145
2023-05-14T08:13:32.616Z,51.216034
2023-05-14T08:14:32.591Z,51.216103
2023-05-14T08:15:32.599Z,51.216110
2023-05-14T08:16:32.605Z,51.216011
2023-05-14T08:17:32.609Z,51.216007
2023-05-14T08:18:32.593Z,51.216045
2023-05-14T08:19:32.578Z,51.215954
2023-05-14T08:20:32.571Z,51.215889
2023-05-14T08:21:32.551Z,51.215904
2023-05-14T08:22:32.567Z,51.215988
2023-05-14T08:23:32.554Z,51.216087
2023-05-14T08:24:32.532Z,51.216087
2023-05-14T08:25:32.553Z,51.216076
2023-05-14T08:26:32.520Z,51.216080
2023-05-14T08:27:32.537Z,51.216019
2023-05-14T08:28:32.526Z,51.216053
2023-05-14T08:29:32.510Z,51.216003
2023-05-14T08:30:32.517Z,51.216045
2023-05-14T08:31:32.525Z,51.216003
2023-05-14T08:32:32.554Z,51.216015
2023-05-14T08:33:32.479Z,51.216034
2023-05-14T08:34:32.474Z,51.216129
2023-05-14T08:35:32.477Z,51.216122
2023-05-14T08:36:32.466Z,51.216038
2023-05-14T08:37:32.528Z,51.216045
2023-05-14T08:38:32.456Z,51.216003
2023-05-14T08:39:32.442Z,51.216011
2023-05-14T08:40:32.428Z,51.215984
2023-05-14T08:41:32.442Z,51.216049
2023-05-14T08:42:32.430Z,51.216187
2023-05-14T08:43:32.443Z,51.216213
2023-05-14T08:44:32.414Z,51.216133
2023-05-14T08:45:32.411Z,51.216072
2023-05-14T08:46:32.407Z,51.216045
2023-05-14T08:47:32.428Z,51.216061
2023-05-14T08:48:32.468Z,51.216042
2023-05-14T08:49:32.394Z,51.215950
2023-05-14T08:50:32.412Z,51.216026
2023-05-14T08:51:32.358Z,51.216145
2023-05-14T08:52:32.383Z,51.216225
2023-05-14T08:53:32.345Z,51.216118
2023-05-14T08:54:32.337Z,51.216087
2023-05-14T08:55:32.344Z,51.216145
2023-05-14T08:56:32.353Z,51.216198
2023-05-14T08:57:32.334Z,51.216167
2023-05-14T08:58:32.335Z,51.216190
2023-05-14T08:59:32.315Z,51.216175
2023-05-14T09:00:32.302Z,51.216156
2023-05-14T09:01:32.343Z,51.216103
2023-05-14T09:02:32.299Z,51.216122
2023-05-14T09:03:32.284Z,51.216129
2023-05-14T09:04:32.293Z,51.216110
2023-05-14T09:05:33.273Z,51.216209
2023-05-14T09:06:32.273Z,51.216129
2023-05-14T09:07:32.275Z,51.216267
2023-05-14T09:08:32.261Z,51.216274
2023-05-14T09:09:32.247Z,51.216240
2023-05-14T09:10:32.261Z,51.216122
2023-05-14T09:11:32.229Z,51.216282
2023-05-14T09:12:32.222Z,51.216175
2023-05-14T09:13:32.233Z,51.216236
2023-05-14T09:14:33.287Z,51.216267
2023-05-14T09:15:32.258Z,51.216305
2023-05-14T09:16:32.262Z,51.216236
2023-05-14T09:17:32.492Z,51.216190
2023-05-14T09:18:32.211Z,51.216187
2023-05-14T09:19:32.183Z,51.216309
2023-05-14T09:20:32.207Z,51.216106
2023-05-14T09:21:33.549Z,51.215992
2023-05-14T09:22:33.185Z,51.215961
2023-05-14T09:23:32.191Z,51.216084
2023-05-14T09:24:32.176Z,51.216057
2023-05-14T09:25:32.136Z,51.216038
2023-05-14T09:26:32.173Z,51.216022
2023-05-14T09:27:32.136Z,51.216049
2023-05-14T09:28:32.131Z,51.216026
2023-05-14T09:29:32.128Z,51.216129
2023-05-14T09:30:32.107Z,51.216152
2023-05-14T09:31:32.143Z,51.216122
2023-05-14T09:32:32.121Z,51.216167
2023-05-14T09:33:32.094Z,51.216187
2023-05-14T09:34:32.102Z,51.216202
2023-05-14T09:35:32.108Z,51.216194
2023-05-14T09:36:32.075Z,51.216175
2023-05-14T09:37:32.071Z,51.216042
2023-05-14T09:38:32.063Z,51.216042
2023-05-14T09:39:32.058Z,51.216038
2023-05-14T09:40:32.054Z,51.216034
2023-05-14T09:41:32.049Z,51.216068
2023-05-14T09:42:32.062Z,51.216091
2023-05-14T09:43:32.030Z,51.216324
2023-05-14T09:44:32.037Z,51.216171
2023-05-14T09:45:32.018Z,51.216118
2023-05-14T09:46:32.009Z,51.216183
2023-05-14T09:47:32.051Z,51.216091
2023-05-14T09:48:32.055Z,51.216080
2023-05-14T09:49:32.001Z,51.216038
2023-05-14T09:50:31.987Z,51.216198
2023-05-14T09:51:31.980Z,51.216167
2023-05-14T09:52:31.983Z,51.216190
2023-05-14T09:53:31.965Z,51.216110
2023-05-14T09:54:31.975Z,51.216103
2023-05-14T09:55:31.950Z,51.216076
2023-05-14T09:56:31.947Z,51.215996
2023-05-14T09:57:31.941Z,51.215958
2023-05-14T09:58:31.934Z,51.215992
2023-05-14T09:59:31.921Z,51.216087
2023-05-14T10:00:31.915Z,51.216110
2023-05-14T10:01:31.930Z,51.216000
2023-05-14T10:02:31.948Z,51.215988
2023-05-14T10:03:31.915Z,51.215958
2023-05-14T10:04:31.896Z,51.215984
2023-05-14T10:05:31.883Z,51.216156
2023-05-14T10:06:31.870Z,51.216213
2023-05-14T10:07:31.861Z,51.216103
2023-05-14T10:08:31.876Z,51.216087
2023-05-14T10:09:31.864Z,51.215988
2023-05-14T10:10:31.869Z,51.215931
2023-05-14T10:11:31.847Z,51.216026
2023-05-14T10:12:31.837Z,51.215977
2023-05-14T10:13:31.876Z,51.215725
2023-05-14T10:14:31.831Z,51.215950
2023-05-14T10:15:31.834Z,51.216015
2023-05-14T10:16:31.851Z,51.216129
2023-05-14T10:17:31.850Z,51.216160
2023-05-14T10:18:31.837Z,51.215950
2023-05-14T10:19:31.799Z,51.216049
2023-05-14T10:20:31.806Z,51.216045
2023-05-14T10:21:31.824Z,51.215824
2023-05-14T10:22:31.796Z,51.215786
2023-05-14T10:23:31.777Z,51.216114
2023-05-14T10:24:31.782Z,51.216370
2023-05-14T10:25:31.792Z,51.216175
2023-05-14T10:26:31.764Z,51.216511
2023-05-14T10:27:31.763Z,51.216553
2023-05-14T10:28:31.744Z,51.216297
2023-05-14T10:29:31.742Z,51.216217
2023-05-14T10:30:31.731Z,51.216278
2023-05-14T10:31:31.761Z,51.216309
2023-05-14T10:32:31.760Z,51.216225
2023-05-14T10:33:31.719Z,51.216133
2023-05-14T10:34:31.750Z,51.216064
2023-05-14T10:35:31.703Z,51.215816
2023-05-14T10:36:31.679Z,51.215935
2023-05-14T10:37:32.698Z,51.215542
2023-05-14T10:38:31.679Z,51.215363
2023-05-14T10:39:31.686Z,51.215485
2023-05-14T10:40:31.672Z,51.215614
2023-05-14T10:41:31.671Z,51.215607
2023-05-14T10:42:31.836Z,51.215897
2023-05-14T10:43:31.647Z,51.216076
2023-05-14T10:44:31.666Z,51.216209
2023-05-14T10:45:32.634Z,51.216084
2023-05-14T10:46:31.690Z,51.216232
2023-05-14T10:47:31.691Z,51.216167
2023-05-14T10:48:31.625Z,51.215988
2023-05-14T10:49:42.858Z,51.216164
2023-05-14T10:50:33.613Z,51.216045
2023-05-14T10:51:31.699Z,51.216042
2023-05-14T10:52:31.615Z,51.216194
2023-05-14T10:53:31.589Z,51.216106
2023-05-14T10:54:31.592Z,51.216042
2023-05-14T10:55:31.584Z,51.215885
2023-05-14T10:56:31.558Z,51.215698
2023-05-14T10:57:31.588Z,51.216160
2023-05-14T10:58:31.823Z,51.216160
2023-05-14T10:59:31.554Z,51.216240
2023-05-14T11:00:31.559Z,51.216152
2023-05-14T11:01:31.571Z,51.216156
2023-05-14T11:02:31.568Z,51.216232
2023-05-14T11:03:31.570Z,51.216228
2023-05-14T11:04:31.601Z,51.216255
2023-05-14T11:05:31.526Z,51.216145
2023-05-14T11:06:31.521Z,51.216183
2023-05-14T11:07:31.510Z,51.216137
2023-05-14T11:08:31.508Z,51.216213
2023-05-14T11:09:31.513Z,51.216095
2023-05-14T11:10:31.518Z,51.216061
2023-05-14T11:11:31.489Z,51.216076
2023-05-14T11:12:31.481Z,51.216133
2023-05-14T11:13:31.470Z,51.216118
2023-05-14T11:14:31.466Z,51.216129
2023-05-14T11:15:31.485Z,51.216141
2023-05-14T11:16:31.506Z,51.216118
2023-05-14T11:17:31.469Z,51.216022
2023-05-14T11:18:31.525Z,51.216049
2023-05-14T11:19:31.456Z,51.216103
2023-05-14T11:20:31.489Z,51.216213
2023-05-14T11:21:31.498Z,51.216202
2023-05-14T11:22:31.430Z,51.216152
2023-05-14T11:23:31.433Z,51.216087
2023-05-14T11:24:31.432Z,51.216125